FMM weather

Fort Morgan Municipal Airport
Fort Morgan, Colorado, United States

Public forecast

Using degrees Fahrenheit for public forecast. Weather courtesy of forecast.io.

METAR (pilot weather report)

Retrieved 2019/09/22 23:35 UTC (0 seconds ago):

KFMM 222335Z AUTO 12007KT 10SM CLR 22/00 A3006 RMK AO2 T02201003

TAF (pilot weather forecast)

Closest forecast is Denver International Airport, 48.9 nm (90.6 km) SW. Retrieved 2019/09/22 18:40 UTC (5 hours ago):

TAF KDEN 221738Z 2218/2324 30006KT P6SM FEW100 FM222000 04007KT P6SM FEW100 FM230000 13008KT P6SM SKC FM230500 23007KT P6SM FEW220 FM231700 30005KT P6SM FEW100 FM232000 04007KT P6SM SCT100